»·PEaware :: AAL877 KOKC-KMDW

AAL877 :: KOKC-KMDW

FLIGHT INFORMATION

Flight Status: Arrived
Operator:
American Airlines
More flights by this operator :: More flights under this callsign
Pilot: Mitchell L. (19304)
Aircraft: Unknown
(E195)
More flights by this aircraft type
Origin: KOKC Will Rogers World
United States
Destination: KMDW Chicago-Midway
United States
More flights between these airports :: More routes between these airports
Route: TRUPR3 DRLER MAGOO ENDEE4
File this flight plan on PilotEdge
Remarks:
Altitude:
(Current/Filed)
39,000ft
Speed:
(Current/Filed)
475kts
Departed: 30-Jul-18 05:42 PM
Arrived: 30-Jul-18 07:12 PM
Distance/Time
Traveled:
595nm/1:30
Distance/Time
To Go:
Arrived

Flight Plot

Page will automatically refresh every two minutes.

Flight plan parsing failed; only flown route is shown


Map Options




Map Legend


Flown Route
Filed Route
Departure Airport
Arrival Airport
Navaid (VOR, NDB)
Fix

Horizontal Profiles

Position Reports

Time Latitude Longitude Heading Altitude Ground
Speed
30-Jul-18 17:15 35.394810 -97.599284 0 1298ft 0kts
30-Jul-18 17:16 35.394810 -97.599284 0 1298ft 0kts
30-Jul-18 17:17 35.394810 -97.599284 0 1298ft 0kts
30-Jul-18 17:18 35.394810 -97.599284 0 1298ft 0kts
30-Jul-18 17:19 35.394810 -97.599284 0 1298ft 0kts
30-Jul-18 17:20 35.394810 -97.599284 0 1298ft 0kts
30-Jul-18 17:21 35.394810 -97.599284 0 1298ft 0kts
30-Jul-18 17:22 35.394810 -97.599284 0 1298ft 0kts
30-Jul-18 17:23 35.394810 -97.599284 0 1298ft 0kts
30-Jul-18 17:24 35.394810 -97.599284 0 1298ft 0kts
30-Jul-18 17:25 35.394810 -97.599284 0 1298ft 0kts
30-Jul-18 17:26 35.394810 -97.599284 0 1298ft 0kts
30-Jul-18 17:27 35.394810 -97.599284 0 1298ft 0kts
30-Jul-18 17:28 35.394810 -97.599284 0 1298ft 0kts
30-Jul-18 17:29 35.394810 -97.599284 0 1298ft 0kts
30-Jul-18 17:30 35.394810 -97.599284 0 1298ft 0kts
30-Jul-18 17:31 35.394810 -97.599284 0 1298ft 0kts
30-Jul-18 17:32 35.394693 -97.599309 3 1298ft 0kts
30-Jul-18 17:33 35.394236 -97.598993 297 1298ft 2kts
30-Jul-18 17:34 35.394174 -97.599564 269 1298ft 3kts
30-Jul-18 17:35 35.394293 -97.599850 316 1298ft 0kts
30-Jul-18 17:36 35.394300 -97.599857 316 1298ft 0kts
30-Jul-18 17:37 35.393883 -97.600496 172 1298ft 6kts
30-Jul-18 17:38 35.392155 -97.599467 274 1298ft 8kts
30-Jul-18 17:39 35.392080 -97.603442 232 1298ft 14kts
30-Jul-18 17:40 35.387022 -97.603272 174 1298ft 22kts
30-Jul-18 17:41 35.380261 -97.603284 178 1298ft 27kts
30-Jul-18 17:42 35.379428 -97.605612 332 1298ft 9kts
30-Jul-18 17:43 35.403974 -97.605511 1 2205ft 180kts
30-Jul-18 17:44 35.450144 -97.588795 47 5093ft 212kts
30-Jul-18 17:45 35.480196 -97.519443 61 8110ft 268kts
30-Jul-18 17:46 35.511417 -97.431876 63 11126ft 305kts
30-Jul-18 17:47 35.544447 -97.331998 64 14123ft 340kts
30-Jul-18 17:48 35.579582 -97.221347 63 16848ft 370kts
30-Jul-18 17:49 35.617842 -97.100743 64 19234ft 399kts
30-Jul-18 17:50 35.659135 -96.970628 64 21230ft 428kts
30-Jul-18 17:51 35.715595 -96.840450 55 23238ft 441kts
30-Jul-18 17:52 35.777569 -96.709942 55 25154ft 452kts
30-Jul-18 17:53 35.840209 -96.574026 55 26820ft 463kts
30-Jul-18 17:54 35.903254 -96.435970 55 28334ft 470kts
30-Jul-18 17:55 35.964228 -96.301919 56 29574ft 478kts
30-Jul-18 17:56 36.029124 -96.157593 56 30625ft 487kts
30-Jul-18 17:57 36.094304 -96.013300 55 31595ft 494kts
30-Jul-18 17:58 36.158487 -95.873057 55 32544ft 497kts
30-Jul-18 17:59 36.233238 -95.734460 40 33540ft 486kts
30-Jul-18 18:00 36.328168 -95.623483 34 34507ft 480kts
30-Jul-18 18:01 36.425391 -95.510829 36 35104ft 503kts
30-Jul-18 18:02 36.522472 -95.392049 37 35090ft 506kts
30-Jul-18 18:03 36.617784 -95.273265 38 35078ft 509kts
30-Jul-18 18:04 36.718516 -95.147339 38 35062ft 509kts
30-Jul-18 18:05 36.817394 -95.024572 38 35053ft 510kts
30-Jul-18 18:06 36.917003 -94.900610 39 35059ft 517kts
30-Jul-18 18:07 37.016718 -94.775771 41 35070ft 522kts
30-Jul-18 18:08 37.116004 -94.650844 41 35066ft 522kts
30-Jul-18 18:09 37.218977 -94.522545 41 35067ft 522kts
30-Jul-18 18:10 37.318670 -94.397206 42 35070ft 523kts
30-Jul-18 18:11 37.418116 -94.270212 43 35059ft 523kts
30-Jul-18 18:12 37.518212 -94.141140 42 35063ft 523kts
30-Jul-18 18:13 37.617589 -94.013866 42 35066ft 523kts
30-Jul-18 18:14 37.701205 -93.906666 42 35079ft 523kts
30-Jul-18 18:15 37.801717 -93.777041 42 35085ft 523kts
30-Jul-18 18:16 37.917256 -93.627337 42 35086ft 522kts
30-Jul-18 18:17 38.017285 -93.497195 42 35090ft 522kts
30-Jul-18 18:18 38.109521 -93.376706 42 35089ft 522kts
30-Jul-18 18:19 38.189985 -93.271871 43 35077ft 522kts
30-Jul-18 18:20 38.291381 -93.138271 43 35079ft 523kts
30-Jul-18 18:21 38.390432 -93.007209 44 35081ft 529kts
30-Jul-18 18:22 38.493546 -92.870358 45 35083ft 535kts
30-Jul-18 18:23 38.596060 -92.733643 45 35081ft 535kts
30-Jul-18 18:24 38.698405 -92.596547 45 35080ft 535kts
30-Jul-18 18:25 38.800215 -92.459587 45 35088ft 535kts
30-Jul-18 18:26 38.898022 -92.327401 45 35085ft 533kts
30-Jul-18 18:27 38.996975 -92.191685 46 35084ft 514kts
30-Jul-18 18:28 39.091495 -92.062346 45 35092ft 506kts
30-Jul-18 18:29 39.187219 -91.932955 45 35091ft 506kts
30-Jul-18 18:30 39.282584 -91.803087 45 35090ft 506kts
30-Jul-18 18:31 39.378071 -91.671164 45 35095ft 505kts
30-Jul-18 18:32 39.473326 -91.538940 45 35094ft 506kts
30-Jul-18 18:33 39.569042 -91.405686 45 35095ft 506kts
30-Jul-18 18:34 39.662218 -91.274890 46 35089ft 506kts
30-Jul-18 18:35 39.756544 -91.141204 46 35090ft 511kts
30-Jul-18 18:36 39.853889 -91.004018 46 35085ft 524kts
30-Jul-18 18:37 39.953062 -90.863738 46 35090ft 529kts
30-Jul-18 18:38 40.052537 -90.725764 42 35106ft 528kts
30-Jul-18 18:39 40.160704 -90.604170 37 34632ft 529kts
30-Jul-18 18:40 40.271034 -90.482227 41 32663ft 520kts
30-Jul-18 18:41 40.373801 -90.361216 42 30695ft 495kts
30-Jul-18 18:42 40.460950 -90.260688 44 28967ft 474kts
30-Jul-18 18:43 40.550670 -90.156100 45 27185ft 453kts
30-Jul-18 18:44 40.640458 -90.049681 46 25315ft 431kts
30-Jul-18 18:45 40.726802 -89.946637 46 23519ft 411kts
30-Jul-18 18:46 40.805675 -89.845342 51 21798ft 390kts
30-Jul-18 18:47 40.871162 -89.748060 58 20319ft 374kts
30-Jul-18 18:48 40.920123 -89.631796 66 18763ft 358kts
30-Jul-18 18:49 40.964626 -89.516974 64 17272ft 351kts
30-Jul-18 18:50 41.006340 -89.413808 63 15885ft 343kts
30-Jul-18 18:51 41.043738 -89.320159 63 14607ft 336kts
30-Jul-18 18:52 41.082449 -89.222372 61 13340ft 330kts
30-Jul-18 18:53 41.120889 -89.127286 61 12087ft 324kts
30-Jul-18 18:54 41.164170 -89.024744 60 10702ft 319kts
30-Jul-18 18:55 41.204978 -88.927049 61 9797ft 282kts
30-Jul-18 18:56 41.241729 -88.837170 61 9307ft 283kts
30-Jul-18 18:57 41.278542 -88.746549 61 8816ft 283kts
30-Jul-18 18:58 41.315275 -88.655742 61 8320ft 280kts
30-Jul-18 18:59 41.351691 -88.565286 61 7820ft 278kts
30-Jul-18 19:00 41.392193 -88.479261 51 7147ft 273kts
30-Jul-18 19:01 41.439620 -88.401910 50 6356ft 273kts
30-Jul-18 19:02 41.483001 -88.330246 52 5993ft 268kts
30-Jul-18 19:03 41.521844 -88.245752 66 5991ft 270kts
30-Jul-18 19:04 41.550282 -88.157066 67 5991ft 270kts
30-Jul-18 19:05 41.577743 -88.072755 66 5985ft 239kts
30-Jul-18 19:06 41.602500 -87.996988 65 5192ft 223kts
30-Jul-18 19:07 41.638392 -87.937759 45 4502ft 191kts
30-Jul-18 19:08 41.674862 -87.891196 44 3617ft 171kts
30-Jul-18 19:09 41.705992 -87.851885 44 2379ft 127kts
30-Jul-18 19:10 41.728719 -87.823187 44 2209ft 118kts
30-Jul-18 19:11 41.750744 -87.795339 44 1551ft 114kts
30-Jul-18 19:12 41.773411 -87.766633 44 881ft 113kts
30-Jul-18 19:13 41.789465 -87.746219 49 626ft 9kts
30-Jul-18 19:14 41.787977 -87.746399 239 626ft 14kts
30-Jul-18 19:15 41.785079 -87.746039 72 626ft 16kts
30-Jul-18 19:16 41.786369 -87.744891 302 626ft 1kts
30-Jul-18 19:17 41.786439 -87.745005 310 626ft 0kts
30-Jul-18 19:18 41.786439 -87.745005 310 626ft 0kts
30-Jul-18 19:19 41.786439 -87.745005 310 626ft 0kts
30-Jul-18 19:20 41.786439 -87.745005 310 626ft 0kts
30-Jul-18 19:21 41.786439 -87.745005 310 626ft 0kts
30-Jul-18 19:22 41.786439 -87.745005 310 626ft 0kts
30-Jul-18 19:23 41.732212 -87.818774 44 2101ft 117kts

Navigation Log

Ident Type
Flight plan parsing failed, navigation log unavailable